Terminal Aerodrome Forecast
Issued by NWS Paducah, KY

Home | Current Version | Previous Version | Text Only | Print | Product List | Glossary On
Versions: 1 2 3 4 5 6 7 8 9 10 11 12 13 14 15 16 17 18 19 20 21
000
FTUS43 KPAH 071139
TAFEVV
TAF
KEVV 071139Z 0712/0812 21010KT 5SM SHRA BR SCT008 BKN015
      TEMPO 0712/0716 6SM BR BKN008
     FM071600 20010KT P6SM BKN035
     FM072200 21012KT 4SM TSRA BKN020CB
     FM080600 30004KT 5SM BR OVC007=

USA.gov is the U.S. government's official web portal to all federal, state and local government web resources and services.